createdAt,value
2022-10-30T15:59:36.668Z,7.90
2022-10-30T16:02:32.405Z,7.80
2022-10-30T16:05:22.988Z,7.30
2022-10-30T16:08:18.020Z,8.30
2022-10-30T16:11:24.907Z,10.40
2022-10-30T16:14:16.615Z,10.10
2022-10-30T16:17:43.591Z,8.10
2022-10-30T16:21:04.145Z,8.90
2022-10-30T16:24:17.362Z,9.20
2022-10-30T16:27:24.003Z,8.70
2022-10-30T16:30:33.056Z,8.40
2022-10-30T16:33:22.884Z,8.40
2022-10-30T16:36:32.731Z,8.30
2022-10-30T16:39:32.018Z,9.90
2022-10-30T16:42:16.711Z,7.90
2022-10-30T16:45:11.630Z,8.00
2022-10-30T16:48:27.768Z,10.10
2022-10-30T16:51:39.074Z,14.20
2022-10-30T16:54:34.149Z,12.10
2022-10-30T16:57:48.787Z,12.90
2022-10-30T17:01:04.280Z,11.20
2022-10-30T17:04:01.494Z,12.00
2022-10-30T17:07:02.708Z,12.10
2022-10-30T17:10:14.752Z,11.50
2022-10-30T17:13:32.146Z,12.90
2022-10-30T17:16:32.872Z,11.10
2022-10-30T17:20:31.107Z,10.90
2022-10-30T17:23:51.743Z,12.20
2022-10-30T17:26:29.523Z,12.90
2022-10-30T17:29:30.501Z,13.00
2022-10-30T17:32:49.211Z,11.80
2022-10-30T17:35:36.541Z,11.20
2022-10-30T17:38:29.853Z,10.50
2022-10-30T17:41:06.954Z,11.80
2022-10-30T17:44:03.120Z,11.70
2022-10-30T17:46:54.889Z,11.60
2022-10-30T17:50:12.015Z,11.70
2022-10-30T17:53:02.801Z,12.90
2022-10-30T17:56:14.104Z,11.80
2022-10-30T17:59:04.461Z,14.00
2022-10-30T18:01:44.321Z,14.30
2022-10-30T18:04:28.591Z,13.40
2022-10-30T18:08:02.419Z,14.20
2022-10-30T18:10:56.954Z,13.40
2022-10-30T18:13:45.335Z,11.60
2022-10-30T18:16:54.598Z,13.50
2022-10-30T18:19:45.104Z,15.90
2022-10-30T18:22:55.638Z,14.10
2022-10-30T18:26:19.342Z,12.00
2022-10-30T18:30:20.048Z,11.50
2022-10-30T18:33:28.072Z,11.80
2022-10-30T18:36:32.666Z,11.60
2022-10-30T18:43:22.504Z,11.30
2022-10-30T18:46:35.215Z,11.00
2022-10-30T19:06:58.518Z,10.80
2022-10-30T19:10:02.192Z,10.30
2022-10-30T19:13:13.674Z,11.90
2022-10-30T19:16:00.373Z,11.70
2022-10-30T19:19:20.465Z,11.70
2022-10-30T19:21:53.607Z,11.80
2022-10-30T19:25:03.348Z,11.80
2022-10-30T19:28:12.729Z,11.30
2022-10-30T19:31:02.957Z,11.60
2022-10-30T19:34:00.427Z,11.50
2022-10-30T19:36:40.789Z,10.70
2022-10-30T19:39:56.540Z,10.60
2022-10-30T19:43:02.780Z,11.50
2022-10-30T19:45:57.249Z,12.70
2022-10-30T19:48:56.122Z,11.70
2022-10-30T19:52:11.797Z,10.90
2022-10-30T19:55:27.478Z,11.30
2022-10-30T19:58:48.933Z,12.60
2022-10-30T20:01:46.759Z,12.90
2022-10-30T20:04:54.409Z,13.20
2022-10-30T20:08:48.364Z,11.90
2022-10-30T20:12:13.082Z,12.20
2022-10-30T20:15:22.130Z,12.50
2022-10-30T20:18:18.866Z,11.80
2022-10-30T20:21:36.692Z,12.80
2022-10-30T20:24:53.473Z,13.10
2022-10-30T20:28:06.787Z,12.60
2022-10-30T20:31:14.257Z,12.80
2022-10-30T20:34:22.309Z,13.20
2022-10-30T20:37:01.277Z,12.80
2022-10-30T20:39:43.297Z,12.90
2022-10-30T20:42:45.612Z,12.00
2022-10-30T20:45:41.928Z,13.20
2022-10-30T20:48:33.892Z,12.40
2022-10-30T20:51:27.573Z,13.00
2022-10-30T20:54:29.271Z,12.90
2022-10-30T20:57:07.130Z,12.70
2022-10-30T21:00:09.787Z,12.80
2022-10-30T21:03:20.771Z,12.90
2022-10-30T21:06:15.874Z,11.40
2022-10-30T21:09:24.440Z,11.50
2022-10-30T21:12:02.446Z,11.80
2022-10-30T21:15:14.745Z,11.30
2022-10-30T21:18:20.461Z,10.50
2022-10-30T21:21:24.466Z,11.50
2022-10-30T21:24:18.891Z,10.70
2022-10-30T21:27:11.222Z,10.40
2022-10-30T21:30:11.253Z,11.30
2022-10-30T21:33:20.643Z,11.70
2022-10-30T21:36:37.992Z,10.90
2022-10-30T21:39:43.655Z,10.80
2022-10-30T21:43:03.053Z,10.30
2022-10-30T21:46:25.438Z,11.60
2022-10-30T21:49:33.137Z,11.40
2022-10-30T21:52:47.149Z,11.90
2022-10-30T21:55:28.960Z,11.80
2022-10-30T21:58:29.718Z,11.60
2022-10-30T22:01:18.507Z,12.50
2022-10-30T22:04:51.317Z,13.20
2022-10-30T22:07:50.596Z,13.50
2022-10-30T22:35:52.387Z,13.30
2022-10-30T22:43:34.586Z,12.10
2022-10-30T22:46:48.667Z,12.00
2022-10-30T22:50:19.857Z,12.80
2022-10-30T22:53:45.966Z,12.60
2022-10-30T22:57:43.926Z,11.50
2022-10-30T23:00:47.746Z,12.70
2022-10-30T23:06:59.201Z,12.50
2022-10-30T23:13:37.078Z,12.80
2022-10-30T23:17:18.819Z,11.70
2022-10-30T23:20:35.574Z,11.40
2022-10-30T23:23:33.783Z,12.00
2022-10-30T23:26:39.166Z,11.90
2022-10-30T23:29:31.249Z,12.00
2022-10-30T23:32:15.027Z,12.50
2022-10-30T23:35:02.635Z,12.20
2022-10-30T23:37:35.779Z,12.00
2022-10-30T23:40:17.935Z,12.20
2022-10-30T23:43:01.262Z,12.30
2022-10-30T23:45:41.642Z,11.10
2022-10-30T23:48:14.697Z,11.30
2022-10-30T23:50:55.924Z,11.90
2022-10-30T23:53:45.696Z,11.50
2022-10-30T23:56:33.913Z,12.10
2022-10-30T23:59:11.628Z,11.90
